Flight Track Log - Related Links

Times and Time Zones

All times are in EDT time to prevent confusion due to time zone crossing. See the JZA7996 flight status page for this flight to view local times or setup timezone preferences in your user account.

Time Position Orientation Groundspeed Altitude Reporting Facility
EDT Latitude Longitude Course Direction KTS MPH feet Rate Location/Type
Wed 05:56:24 PM 32.8500 -97.0333 357° North 187 215 3,000  Level Dallas / Fort Worth TRACON
Wed 05:57:25 PM 32.8000 -97.0000 151° Southeast 230 265 5,300 2,459 Climbing Dallas / Fort Worth TRACON
Wed 05:58:26 PM 32.7667 -96.9333 121° Southeast 267 307 8,000 2,430 Climbing Dallas / Fort Worth TRACON
Wed 05:59:26 PM 32.8000 -96.8333 68° East 345 397 10,200 2,188 Climbing Dallas / Fort Worth TRACON
Wed 06:01:00 PM 33.2834 -96.8144 357° North  Level FlightAware Approximate
Wed 06:01:27 PM 32.9844 -96.8117 North 356 410 14,600  Level Fort Worth Center
Wed 06:02:27 PM 33.0783 -96.8133 359° North 362 417 15,800 850 Climbing Fort Worth Center
Wed 06:03:27 PM 33.2078 -96.8175 358° North 406 467 16,300 1,300 Climbing Fort Worth Center
Wed 06:04:27 PM 33.3247 -96.8217 358° North 445 512 18,400 2,650 Climbing Fort Worth Center
Wed 06:05:27 PM 33.4539 -96.8158 North 430 495 21,600 2,500 Climbing Fort Worth Center
Wed 06:06:27 PM 33.5519 -96.7581 26° Northeast 416 479 23,400 1,550 Climbing Fort Worth Center
Wed 06:07:27 PM 33.6619 -96.6872 28° Northeast 429 494 24,700 1,350 Climbing Fort Worth Center
Wed 06:08:27 PM 33.7744 -96.6164 28° Northeast 445 512 26,100 1,100 Climbing Fort Worth Center
Wed 06:09:27 PM 33.8800 -96.5228 36° Northeast 466 536 26,900 550 Climbing Fort Worth Center
Wed 06:10:27 PM 33.9983 -96.4064 39° Northeast 486 559 27,200 700 Climbing Fort Worth Center
Wed 06:11:27 PM 34.1058 -96.2972 40° Northeast 501 577 28,300 1,150 Climbing Fort Worth Center
Wed 06:12:27 PM 34.2175 -96.1878 39° Northeast 501 577 29,500 1,250 Climbing Fort Worth Center
Wed 06:13:27 PM 34.3289 -96.0781 39° Northeast 506 582 30,800 1,150 Climbing Fort Worth Center
Wed 06:14:27 PM 34.4425 -95.9631 40° Northeast 518 596 31,800 1,100 Climbing Fort Worth Center
Wed 06:15:27 PM 34.5539 -95.8553 39° Northeast 518 596 33,000 1,200 Climbing Fort Worth Center
Wed 06:16:27 PM 34.6631 -95.7447 40° Northeast 518 596 34,200 1,200 Climbing Fort Worth Center
Wed 06:17:27 PM 34.7658 -95.6417 39° Northeast 507 583 35,400 1,050 Climbing Fort Worth Center
Wed 06:18:27 PM 34.8667 -95.5433 39° Northeast 501 577 36,300 600 Climbing Fort Worth Center
Wed 06:19:27 PM 34.9736 -95.4397 38° Northeast 496 571 36,600 494 Climbing Fort Worth Center
Wed 06:21:17 PM 35.1792 -95.2294 40° Northeast 506 582 37,700 635 Climbing Memphis Center
Wed 06:22:17 PM 35.2814 -95.1236 40° Northeast 500 575 38,400 500 Climbing Memphis Center
Wed 06:23:17 PM 35.3856 -95.0175 40° Northeast 493 567 38,700 300 Climbing Memphis Center
Wed 06:24:17 PM 35.4875 -94.9058 42° Northeast 487 560 39,000 150 Climbing Memphis Center
Wed 06:25:17 PM 35.5858 -94.7886 44° Northeast 487 560 39,000  Level Memphis Center
Wed 06:26:17 PM 35.6817 -94.6661 46° Northeast 492 566 39,000  Level Memphis Center
Wed 06:27:17 PM 35.7797 -94.5433 45° Northeast 497 572 39,000  Level Memphis Center
Wed 06:28:17 PM 35.8756 -94.4250 45° Northeast 491 565 39,000  Level Memphis Center
Wed 06:29:17 PM 35.9731 -94.3069 44° Northeast 485 558 39,000  Level Memphis Center
Wed 06:30:17 PM 36.0686 -94.1883 45° Northeast 485 558 39,000  Level Memphis Center
Wed 06:31:17 PM 36.1617 -94.0717 45° Northeast 485 558 39,000  Level Memphis Center
Wed 06:32:17 PM 36.2569 -93.9500 46° Northeast 485 558 39,000  Level Memphis Center
Wed 06:33:17 PM 36.3522 -93.8306 45° Northeast 485 558 39,000  Level Memphis Center
Wed 06:34:17 PM 36.4283 -93.7150 51° Northeast 485 558 39,000  Level Memphis Center
Wed 06:36:25 PM 36.6083 -93.4306 52° Northeast 487 560 39,000  Level Kansas City Center
Wed 06:37:26 PM 36.6922 -93.2972 52° Northeast 487 560 39,000  Level Kansas City Center
Wed 06:38:26 PM 36.7753 -93.1669 51° Northeast 485 558 39,000  Level Kansas City Center
Wed 06:39:30 PM 36.8586 -93.0367 51° Northeast 480 552 39,000  Level Kansas City Center
Wed 06:40:31 PM 36.9403 -92.9044 52° Northeast 479 551 39,000  Level Kansas City Center
Wed 06:41:32 PM 37.0219 -92.7717 52° Northeast 480 552 39,000  Level Kansas City Center
Wed 06:42:34 PM 37.1036 -92.6392 52° Northeast 480 552 39,000  Level Kansas City Center
Wed 06:43:34 PM 37.2006 -92.4819 52° Northeast 478 550 39,000  Level Kansas City Center
Wed 06:44:38 PM 37.2811 -92.3500 52° Northeast 478 550 39,000  Level Kansas City Center
Wed 06:45:39 PM 37.3619 -92.2178 52° Northeast 478 550 39,000  Level Kansas City Center
Wed 06:46:41 PM 37.4428 -92.0822 53° Northeast 483 556 39,000  Level Kansas City Center
Wed 06:47:42 PM 37.5225 -91.9508 53° Northeast 477 549 39,000  Level Kansas City Center
Wed 06:48:42 PM 37.6006 -91.8225 52° Northeast 469 540 39,000  Level Kansas City Center
Wed 06:49:46 PM 37.6778 -91.6936 53° Northeast 464 534 39,000  Level Kansas City Center
Wed 06:50:47 PM 37.7689 -91.5411 53° Northeast 456 525 39,000  Level Kansas City Center
Wed 06:51:48 PM 37.8453 -91.4164 52° Northeast 452 520 39,000  Level Kansas City Center
Wed 06:52:49 PM 37.9211 -91.2917 52° Northeast 448 516 39,000  Level Kansas City Center
Wed 06:53:50 PM 37.9947 -91.1647 54° Northeast 447 514 39,000  Level Kansas City Center
Wed 06:54:51 PM 38.0647 -91.0461 53° Northeast 453 521 39,000  Level Kansas City Center
Wed 06:55:53 PM 38.1558 -90.8889 54° Northeast 461 531 39,000  Level Kansas City Center
Wed 06:56:55 PM 38.2322 -90.7567 54° Northeast 467 537 39,000  Level Kansas City Center
Wed 06:57:57 PM 38.3106 -90.6253 53° Northeast 469 540 39,000  Level Kansas City Center
Wed 06:58:58 PM 38.3869 -90.4914 54° Northeast 470 541 39,000  Level Kansas City Center
Wed 07:00:01 PM 38.4639 -90.3564 54° Northeast 476 548 39,000  Level Kansas City Center
Wed 07:01:03 PM 38.5444 -90.2236 52° Northeast 480 552 39,000  Level Kansas City Center
Wed 07:02:03 PM 38.6503 -90.0778 47° Northeast 473 544 39,000  Level Kansas City Center
Wed 07:03:07 PM 38.7389 -89.9531 48° Northeast 478 550 39,000  Level Kansas City Center
Wed 07:04:08 PM 38.8292 -89.8308 47° Northeast 476 548 39,000  Level Kansas City Center
Wed 07:05:08 PM 38.9331 -89.6953 45° Northeast 470 541 39,000  Level Kansas City Center
Wed 07:06:12 PM 39.0222 -89.5736 47° Northeast 467 537 39,000  Level Kansas City Center
Wed 07:07:13 PM 39.1128 -89.4525 46° Northeast 468 539 39,000  Level Kansas City Center
Wed 07:08:14 PM 39.2078 -89.3294 45° Northeast 466 536 39,000  Level Kansas City Center
Wed 07:09:14 PM 39.2992 -89.2103 45° Northeast 467 537 39,000  Level Kansas City Center
Wed 07:10:18 PM 39.3908 -89.0908 45° Northeast 468 539 39,000  Level Kansas City Center
Wed 07:11:19 PM 39.4817 -88.9722 45° Northeast 469 540 39,000  Level Kansas City Center
Wed 07:12:20 PM 39.5750 -88.8561 44° Northeast 468 539 39,000  Level Kansas City Center
Wed 07:13:23 PM 39.6669 -88.7386 45° Northeast 467 537 39,000  Level Kansas City Center
Wed 07:14:25 PM 39.7597 -88.6219 44° Northeast 467 537 39,000  Level Kansas City Center
Wed 07:16:01 PM 39.9244 -88.4147 44° Northeast 460 529 39,000  Level Kansas City Center
Wed 07:17:03 PM 40.0156 -88.2964 45° Northeast 461 531 39,000  Level Kansas City Center
Wed 07:18:05 PM 40.0853 -88.1531 58° Northeast 470 541 39,000  Level Kansas City Center
Wed 07:19:05 PM 40.1489 -88.0086 60° Northeast 465 535 39,000  Level Kansas City Center
Wed 07:20:07 PM 40.2147 -87.8614 60° Northeast 467 537 39,000  Level Kansas City Center
Wed 07:21:09 PM 40.2811 -87.7122 60° Northeast 472 543 39,000  Level Kansas City Center
Wed 07:22:22 PM 40.3747 -87.5003 60° Northeast 477 549 39,000  Level Chicago Center
Wed 07:23:24 PM 40.4414 -87.3514 59° Northeast 477 549 39,000  Level Chicago Center
Wed 07:24:25 PM 40.5083 -87.2014 60° Northeast 479 551 39,000  Level Chicago Center
Wed 07:25:26 PM 40.5739 -87.0489 60° Northeast 483 556 39,000  Level Chicago Center
Wed 07:26:27 PM 40.6414 -86.8969 60° Northeast 485 558 39,000  Level Chicago Center
Wed 07:27:29 PM 40.7156 -86.7228 61° Northeast 487 560 39,000  Level Chicago Center
Wed 07:28:30 PM 40.7825 -86.5686 60° Northeast 487 560 39,000  Level Chicago Center
Wed 07:29:31 PM 40.8486 -86.4142 60° Northeast 486 559 39,000  Level Chicago Center
Wed 07:30:32 PM 40.9144 -86.2586 61° Northeast 486 559 39,000  Level Chicago Center
Wed 07:31:34 PM 40.9794 -86.1042 61° Northeast 484 557 39,000  Level Chicago Center
Wed 07:32:35 PM 41.0450 -85.9494 61° Northeast 485 558 39,000  Level Chicago Center
Wed 07:33:36 PM 41.1106 -85.7922 61° Northeast 489 563 39,000  Level Chicago Center
Wed 07:34:37 PM 41.1744 -85.6369 61° Northeast 486 559 39,000  Level Chicago Center
Wed 07:35:38 PM 41.2392 -85.4808 61° Northeast 487 560 39,000  Level Chicago Center
Wed 07:36:40 PM 41.3175 -85.2919 61° Northeast 492 566 39,000  Level Chicago Center
Wed 07:37:41 PM 41.3814 -85.1350 61° Northeast 492 566 39,000  Level Chicago Center
Wed 07:38:42 PM 41.4456 -84.9761 62° Northeast 494 568 39,000  Level Chicago Center
Wed 07:39:43 PM 41.5114 -84.8167 61° Northeast 496 571 39,000  Level Chicago Center
Wed 07:40:45 PM 41.5750 -84.6583 62° Northeast 494 568 39,000  Level Chicago Center
Wed 07:41:14 PM 41.6158 -84.5553 62° Northeast 484 557 39,000  Level Cleveland Center
Wed 07:42:15 PM 41.6817 -84.3953 61° Northeast 484 557 39,000  Level Cleveland Center
Wed 07:43:15 PM 41.7344 -84.2508 64° Northeast 482 555 39,000  Level Cleveland Center
Wed 07:44:14 PM 41.8000 -84.0903 61° Northeast 482 555 39,000  Level Cleveland Center
Wed 07:45:15 PM 41.8653 -83.9264 62° Northeast 485 558 39,000 -100 Level Cleveland Center
Wed 07:46:14 PM 41.9261 -83.7650 63° Northeast 485 558 38,800 -1,311 Descending Cleveland Center
Wed 07:47:14 PM 41.9956 -83.5867 62° Northeast 485 558 36,400 -2,200 Descending Cleveland Center
Wed 07:48:14 PM 42.0603 -83.4247 62° Northeast 485 558 34,400 -1,190 Descending Cleveland Center
Wed 07:49:15 PM 42.1306 -83.2711 58° Northeast 485 558 34,000 -200 Descending Cleveland Center
Wed 07:50:14 PM 42.1967 -83.1142 60° Northeast 485 558 34,000 -50 Level Cleveland Center
Wed 07:51:15 PM 42.2689 -82.9514 59° Northeast 485 558 33,900 -595 Descending Cleveland Center
Wed 07:52:15 PM 42.3389 -82.7967 58° Northeast 480 552 32,800 -1,008 Descending Cleveland Center
Wed 07:53:14 PM 42.4064 -82.6386 60° Northeast 480 552 31,900 -1,008 Descending Cleveland Center
Wed 07:54:14 PM 42.4758 -82.4778 60° Northeast 480 552 30,800 -1,000 Descending Cleveland Center
Wed 07:55:14 PM 42.5472 -82.3164 59° Northeast 480 552 29,900 -950 Descending Cleveland Center
Wed 07:56:14 PM 42.6161 -82.1519 60° Northeast 485 558 28,900 -450 Descending Cleveland Center
Wed 07:57:14 PM 42.6850 -81.9897 60° Northeast 485 558 29,000 50 Climbing Cleveland Center
Wed 07:58:15 PM 42.7558 -81.8244 60° Northeast 491 565 29,000 -100 Level Cleveland Center
Wed 07:59:14 PM 42.8261 -81.6617 59° Northeast 496 571 28,800 -857 Descending Cleveland Center
Wed 08:00:14 PM 42.8919 -81.5042 60° Northeast 487 560 27,300 -1,704 Descending Cleveland Center
Wed 08:00:35 PM 42.9000 -81.4333 81° East 480 552 26,500 -2,296 Descending Toronto Center
Wed 08:01:35 PM 42.9667 -81.2667 61° Northeast 480 552 24,200 -2,400 Descending Toronto Center
Wed 08:02:35 PM 43.0333 -81.1167 59° Northeast 470 541 21,700 -2,450 Descending Toronto Center
Wed 08:03:35 PM 43.1000 -80.9833 56° Northeast 460 529 19,300 -2,300 Descending Toronto Center
Wed 08:04:35 PM 43.1667 -80.8500 56° Northeast 440 506 17,100 -2,300 Descending Toronto Center
Wed 08:05:35 PM 43.2333 -80.7167 56° Northeast 430 495 14,700 -2,450 Descending Toronto Center
Wed 08:06:35 PM 43.3000 -80.5667 59° Northeast 410 472 12,200 -1,750 Descending Toronto Center
Wed 08:07:35 PM 43.3500 -80.4667 55° Northeast 380 437 11,200 -1,000 Descending Toronto Center
Wed 08:08:35 PM 43.4000 -80.3500 59° Northeast 320 368 10,200 -1,400 Descending Toronto Center
Wed 08:09:35 PM 43.4500 -80.2500 55° Northeast 300 345 8,400 -1,600 Descending Toronto Center
Wed 08:10:35 PM 43.4833 -80.1667 61° Northeast 280 322 7,000 -800 Descending Toronto Center
Wed 08:11:35 PM 43.4667 -80.0500 101° East 260 299 6,800 -650 Descending Toronto Center
Wed 08:12:35 PM 43.4667 -79.9500 90° East 260 299 5,700 -1,050 Descending Toronto Center
Wed 08:13:35 PM 43.4833 -79.8667 75° East 250 288 4,700 -900 Descending Toronto Center
Wed 08:14:35 PM 43.5167 -79.8000 55° Northeast 230 265 3,900 -700 Descending Toronto Center
Wed 08:15:35 PM 43.5500 -79.7500 47° Northeast 200 230 3,300 -600 Descending Toronto Center
Wed 08:16:35 PM 43.5833 -79.7000 47° Northeast 160 184 2,700 -750 Descending Toronto Center
Wed 08:17:35 PM 43.6167 -79.6500 47° Northeast 150 173 1,800 -850 Descending Toronto Center
Wed 08:18:35 PM 43.6333 -79.6333 36° Northeast 130 150 1,000 -650 Descending Toronto Center
Wed 08:19:35 PM 43.6500 -79.5833 65° Northeast 130 150 500 -500 Descending Toronto Center

Login

Don't have an account? Register now (free) for customized features, flight alerts, and more!